Impacts METAR Board
IDs:

KLGA - New York/La Guardia, NY, US

Updated at: 0500 UTC 18 Oct 2018
Potential Impact None Slight Moderate High
Time 17/17Z 17/18Z 17/19Z 17/20Z 17/21Z 17/22Z 17/23Z 18/00Z 18/01Z 18/02Z 18/03Z 18/04Z 18/05Z
Temp62 63 63 63 63 59 58 57 55 54 52 50 49
Dewpt36 34 35 36 37 40 39 37 33 33 30 33 31
Altim29.90 29.87 29.86 29.86 29.88 29.91 29.96 30.00 30.03 30.07 30.09 30.12 30.14
VIS10 10 10 10 10 10 10 10 10 10 10 10 10
CIG-- -- 65 85 65 65 90 -- -- -- -- -- --
CoverFEWFEWBKNBKNBKNBKNBKNSCTSCTSCTFEWFEWFEW
FltCatVFRVFRVFRVFRVFRVFRVFRVFRVFRVFRVFRVFRVFR
WX--------------------------
WDir270270280260300320300320290300300310300
WSpd12 14 19 19 18 16 19 18 16 20 16 20 14
WGst20 26 27 31 25 25 27 25 25 29 30 26 --
Raw hourly METARs
KLGA 171651Z 27012G20KT 10SM FEW060 FEW250 17/02 A2990 RMK AO2 SLP124 T01670022
KLGA 171751Z 27014G26KT 10SM FEW060 FEW250 17/01 A2987 RMK AO2 PK WND 26032/1731 SLP114 T01720011 10172 20106 58029
KLGA 171851Z 28019G27KT 10SM BKN065 17/02 A2986 RMK AO2 PK WND 28027/1847 VIS 2 R22 SW SLP111 T01720017
KLGA 171951Z 26019G31KT 10SM SCT060 BKN085 17/02 A2986 RMK AO2 PK WND 27031/1935 SLP112 T01720022
KLGA 172051Z 30018G25KT 10SM BKN065 BKN085 17/03 A2988 RMK AO2 PK WND 27031/2001 SLP117 T01720028 53003
KLGA 172151Z 32016G25KT 10SM BKN065 BKN085 15/04 A2991 RMK AO2 PK WND 30027/2120 SLP129 T01500044
KLGA 172251Z 30019G27KT 10SM SCT060 BKN090 14/04 A2996 RMK AO2 PK WND 31030/2233 SLP144 T01440039
KLGA 172351Z 32018G25KT 10SM SCT060 SCT085 14/03 A3000 RMK AO2 PK WND 30032/2302 SLP159 T01390028 10178 20139 53042
KLGA 180051Z 29016G25KT 10SM SCT055 13/01 A3003 RMK AO2 PK WND 28028/0024 SLP168 T01280006
KLGA 180151Z 30020G29KT 10SM SCT055 12/01 A3007 RMK AO2 PK WND 28030/0138 SLP181 T01220006
KLGA 180251Z 30016G30KT 10SM FEW060 11/M01 A3009 RMK AO2 PK WND 31032/0157 SLP190 T01111011 51030
KLGA 180351Z 31020G26KT 10SM FEW060 10/01 A3012 RMK AO2 PK WND 29028/0306 SLP198 T01000006
KLGA 180451Z 30014KT 10SM FEW060 09/M01 A3014 RMK AO2 PK WND 30030/0412 SLP206 T00941006 401780094 $



Page loaded:  05:26 UTC  |   10:26 PM Pacific  |   11:26 PM Mountain  |   12:26 AM Central  |   01:26 AM Eastern

 

ADVISORIES

FORECASTS

FORECASTS

OBSERVATIONS

USER TOOLS

ABOUT US